EGNV Airport Information

Runway Information
Runway 05 Length 7516 ft width 148 ft
Elevation 115 ft Threshold ft Heading 48
Runway 23 Length 7516 ft Width 148 ft
Elevation 116 ft Threshold ft Heading 228
Airport Frequencies
Type RADAR Name Durham Rad Frequency 118.85 MHZ
Type ATIS Name ATIS Frequency 132.375 MHZ
Type TWR Name Durham Tow Frequency 119.8 MHZ
Airport Navaids
Airport Weather Information & NOTAM
ADDS - METARS form results

(0003 UTC 12 September 2022)
Data provider http://aviationweather.gov/metar/data/
 
Forecast for: EGNV (TEES-SIDE , GB)
Text: TAF EGNV 111659Z 1118/1121 18009KT 9999 FEW040
Forecast period: 1800 to 2100 UTC 11 September 2022
Forecast type: FROM: standard forecast or significant change
Winds: from the S (180 degrees) at 10 MPH (9 knots; 4.6 m/s)
Visibility: 6 or more miles (10+ km)
Ceiling: at least 12,000 feet AGL
Clouds: few clouds at 4000 feet AGL
Weather: no significant weather forecast for this period
Text: TEMPO 1118/1121 6000 RA
Forecast period: 1800 to 2100 UTC 11 September 2022
Forecast type: TEMPORARY: The following changes expected for less than half the time period
Visibility: 4 miles (6 km)
Ceiling: unknown
Clouds: missing
Weather: RA  (moderate rain)